createdAt,value
2019-02-17T05:03:45.261Z,0
2019-02-17T05:07:13.203Z,0
2019-02-17T05:10:41.153Z,0
2019-02-17T05:14:09.089Z,0
2019-02-17T05:17:36.966Z,0
2019-02-17T05:21:05.138Z,0
2019-02-17T05:24:32.951Z,0
2019-02-17T05:28:00.990Z,0
2019-02-17T05:31:29.857Z,0
2019-02-17T05:34:59.110Z,0
2019-02-17T05:38:26.691Z,0
2019-02-17T05:41:54.652Z,0
2019-02-17T05:45:22.827Z,0
2019-02-17T05:48:50.756Z,0
2019-02-17T05:52:18.694Z,1
2019-02-17T05:55:46.768Z,1
2019-02-17T05:59:14.643Z,2
2019-02-17T06:02:42.557Z,2
2019-02-17T06:06:10.508Z,4
2019-02-17T06:09:39.448Z,6
2019-02-17T06:13:07.752Z,10
2019-02-17T06:16:35.663Z,14
2019-02-17T06:20:04.549Z,20
2019-02-17T06:23:32.505Z,29
2019-02-17T06:27:01.449Z,37
2019-02-17T06:30:29.364Z,51
2019-02-17T06:33:57.297Z,69
2019-02-17T06:37:25.175Z,88
2019-02-17T06:40:53.174Z,108
2019-02-17T06:44:21.109Z,122
2019-02-17T06:47:49.048Z,123
2019-02-17T06:51:16.994Z,138
2019-02-17T06:54:44.924Z,177
2019-02-17T06:58:12.880Z,207
2019-02-17T07:01:40.746Z,248
2019-02-17T07:05:08.698Z,273
2019-02-17T07:08:36.672Z,308
2019-02-17T07:12:04.628Z,340
2019-02-17T07:15:32.551Z,346
2019-02-17T07:19:00.478Z,370
2019-02-17T07:22:28.474Z,386
2019-02-17T07:25:56.419Z,401
2019-02-17T07:29:24.457Z,429
2019-02-17T07:32:53.388Z,446
2019-02-17T07:36:22.342Z,476
2019-02-17T07:39:50.283Z,515
2019-02-17T07:43:18.220Z,587
2019-02-17T07:46:46.133Z,628
2019-02-17T07:50:14.202Z,720
2019-02-17T07:53:42.117Z,802
2019-02-17T07:57:10.104Z,789
2019-02-17T08:00:38.078Z,743
2019-02-17T08:04:06.020Z,726
2019-02-17T08:07:33.981Z,749
2019-02-17T08:11:05.137Z,739
2019-02-17T08:14:33.011Z,810
2019-02-17T08:18:00.928Z,750
2019-02-17T08:21:29.895Z,746
2019-02-17T08:24:57.934Z,719
2019-02-17T08:28:27.029Z,738
2019-02-17T08:31:57.953Z,717
2019-02-17T08:35:26.114Z,773
2019-02-17T08:38:54.066Z,730
2019-02-17T08:42:23.176Z,752
2019-02-17T08:45:51.354Z,752
2019-02-17T08:49:19.232Z,753
2019-02-17T08:52:47.146Z,902
2019-02-17T08:56:15.072Z,934
2019-02-17T08:59:43.996Z,909
2019-02-17T09:03:11.925Z,1032
2019-02-17T09:06:39.853Z,952
2019-02-17T09:10:07.810Z,914
2019-02-17T09:13:35.726Z,1058
2019-02-17T09:17:04.599Z,1092
2019-02-17T09:20:32.473Z,1015
2019-02-17T09:24:00.389Z,982
2019-02-17T09:27:29.312Z,1012
2019-02-17T09:30:57.214Z,953
2019-02-17T09:34:25.162Z,989
2019-02-17T09:37:53.091Z,1133
2019-02-17T09:41:20.998Z,1202
2019-02-17T09:44:48.950Z,1324
2019-02-17T09:48:16.900Z,1278
2019-02-17T09:51:44.818Z,1327
2019-02-17T09:55:13.723Z,1285
2019-02-17T09:58:41.699Z,1219
2019-02-17T10:02:09.619Z,1228
2019-02-17T10:05:37.504Z,1313
2019-02-17T10:09:05.446Z,1194
2019-02-17T10:12:33.342Z,999
2019-02-17T10:16:02.254Z,936
2019-02-17T10:19:30.199Z,929
2019-02-17T10:22:58.106Z,1114
2019-02-17T10:26:27.963Z,1085
2019-02-17T10:29:55.881Z,1109
2019-02-17T10:33:23.818Z,1212
2019-02-17T10:36:51.791Z,1174
2019-02-17T10:40:19.717Z,1197
2019-02-17T10:43:47.709Z,1346
2019-02-17T10:47:15.610Z,1251
2019-02-17T10:50:43.477Z,1221
2019-02-17T10:54:11.408Z,1267
2019-02-17T10:57:39.530Z,1396
2019-02-17T11:01:07.367Z,1336
2019-02-17T11:04:35.271Z,1302
2019-02-17T11:08:04.982Z,1317
2019-02-17T11:11:32.878Z,1289
2019-02-17T11:15:00.780Z,1449
2019-02-17T11:18:28.691Z,1450
2019-02-17T11:21:56.612Z,1437
2019-02-17T11:25:24.525Z,1635
2019-02-17T11:28:52.422Z,1615
2019-02-17T11:32:20.324Z,1497
2019-02-17T11:35:48.249Z,1383
2019-02-17T11:39:16.153Z,1467
2019-02-17T11:42:44.102Z,1758
2019-02-17T11:46:11.958Z,1789
2019-02-17T11:49:39.889Z,1740
2019-02-17T11:53:07.814Z,1835
2019-02-17T11:56:36.691Z,1726
2019-02-17T12:00:05.579Z,1653
2019-02-17T12:03:33.445Z,1552
2019-02-17T12:07:02.338Z,1614
2019-02-17T12:10:30.230Z,1798
2019-02-17T12:14:00.163Z,1807
2019-02-17T12:17:28.141Z,1701
2019-02-17T12:20:57.886Z,1550
2019-02-17T12:24:25.998Z,1566
2019-02-17T12:27:54.510Z,1783
2019-02-17T12:31:22.557Z,1623
2019-02-17T12:34:50.610Z,1620
2019-02-17T12:38:19.577Z,1712
2019-02-17T12:41:47.609Z,1615
2019-02-17T12:45:18.425Z,1849
2019-02-17T12:48:45.782Z,1754
2019-02-17T12:52:13.735Z,1490
2019-02-17T12:55:42.732Z,1485
2019-02-17T12:59:10.757Z,1674
2019-02-17T13:02:38.767Z,1654
2019-02-17T13:06:06.787Z,1672
2019-02-17T13:09:35.700Z,1558
2019-02-17T13:13:04.893Z,1512
2019-02-17T13:16:32.745Z,1482
2019-02-17T13:20:00.817Z,1396
2019-02-17T13:23:28.956Z,1387
2019-02-17T13:26:58.042Z,1387
2019-02-17T13:30:25.903Z,1283
2019-02-17T13:33:53.848Z,1240
2019-02-17T13:37:21.848Z,1272
2019-02-17T13:40:49.906Z,1277
2019-02-17T13:44:17.889Z,1278
2019-02-17T13:47:45.895Z,1236
2019-02-17T13:51:13.849Z,1148
2019-02-17T13:54:41.891Z,1090
2019-02-17T13:58:09.873Z,1101
2019-02-17T14:01:37.908Z,1124
2019-02-17T14:05:06.715Z,1088
2019-02-17T14:08:34.787Z,1113
2019-02-17T14:12:02.748Z,1075
2019-02-17T14:15:30.803Z,1017
2019-02-17T14:18:58.722Z,1023
2019-02-17T14:22:26.601Z,1114
2019-02-17T14:25:54.516Z,1041
2019-02-17T14:29:22.399Z,1020
2019-02-17T14:32:50.372Z,955
2019-02-17T14:36:18.255Z,868
2019-02-17T14:39:46.168Z,913
2019-02-17T14:43:14.101Z,956
2019-02-17T14:46:42.405Z,904
2019-02-17T14:50:10.552Z,850
2019-02-17T14:53:38.466Z,777
2019-02-17T14:57:07.118Z,727
2019-02-17T15:00:35.160Z,680
2019-02-17T15:04:08.603Z,649
2019-02-17T15:07:35.187Z,620
2019-02-17T15:11:03.103Z,645
2019-02-17T15:14:31.128Z,570
2019-02-17T15:17:59.067Z,800
2019-02-17T15:21:27.072Z,881
2019-02-17T15:24:55.788Z,738
2019-02-17T15:28:23.969Z,691
2019-02-17T15:31:53.024Z,663
2019-02-17T15:35:22.498Z,650
2019-02-17T15:38:50.128Z,535
2019-02-17T15:42:18.071Z,459
2019-02-17T15:45:46.130Z,413
2019-02-17T15:49:14.047Z,453
2019-02-17T15:52:42.013Z,490
2019-02-17T15:56:09.984Z,439
2019-02-17T15:59:37.898Z,387
2019-02-17T16:03:05.857Z,312
2019-02-17T16:06:33.948Z,246
2019-02-17T16:10:03.762Z,195
2019-02-17T16:13:31.887Z,144
2019-02-17T16:17:02.865Z,96
2019-02-17T16:20:31.758Z,61
2019-02-17T16:23:59.694Z,42
2019-02-17T16:27:27.604Z,28
2019-02-17T16:30:55.561Z,20
2019-02-17T16:34:23.755Z,14
2019-02-17T16:37:51.734Z,9
2019-02-17T16:41:19.723Z,6
2019-02-17T16:44:48.001Z,3
2019-02-17T16:48:16.878Z,2
2019-02-17T16:51:45.310Z,1
2019-02-17T16:55:13.320Z,1
2019-02-17T16:58:41.266Z,0
2019-02-17T17:02:09.167Z,0
2019-02-17T17:05:37.075Z,0
2019-02-17T17:09:05.964Z,0
2019-02-17T17:12:34.874Z,0
2019-02-17T17:16:02.739Z,0
2019-02-17T17:19:30.658Z,0
2019-02-17T17:22:58.572Z,0
2019-02-17T17:26:26.495Z,0
2019-02-17T17:29:54.371Z,0
2019-02-17T17:33:22.331Z,0
2019-02-17T17:36:51.235Z,0
2019-02-17T17:40:19.114Z,0
2019-02-17T17:43:48.500Z,0
2019-02-17T17:47:16.543Z,0
2019-02-17T17:50:44.580Z,0
2019-02-17T17:54:12.704Z,0
2019-02-17T17:57:41.692Z,0
2019-02-17T18:01:10.648Z,0
2019-02-17T18:04:38.695Z,0
2019-02-17T18:08:06.693Z,0
2019-02-17T18:11:35.711Z,0
2019-02-17T18:15:05.602Z,0
2019-02-17T18:18:33.796Z,0
2019-02-17T18:22:02.501Z,0
2019-02-17T18:25:32.871Z,0
2019-02-17T18:29:01.005Z,0
2019-02-17T18:32:29.091Z,0
2019-02-17T18:35:57.154Z,0
2019-02-17T18:39:25.114Z,0
2019-02-17T18:42:53.274Z,0
2019-02-17T18:46:21.283Z,0
2019-02-17T18:49:50.199Z,0
2019-02-17T18:53:18.592Z,0
2019-02-17T18:56:48.011Z,0
2019-02-17T19:00:15.635Z,0
2019-02-17T19:03:43.585Z,0
2019-02-17T19:07:11.577Z,0
2019-02-17T19:10:39.809Z,0
2019-02-17T19:14:08.234Z,0
2019-02-17T19:17:36.216Z,0
2019-02-17T19:21:04.976Z,0
2019-02-17T19:24:32.983Z,0
2019-02-17T19:28:00.957Z,0
2019-02-17T19:31:30.036Z,0
2019-02-17T19:34:58.913Z,0
2019-02-17T19:38:27.940Z,0
2019-02-17T19:41:55.943Z,0
2019-02-17T19:45:23.917Z,0
2019-02-17T19:48:51.898Z,0
2019-02-17T19:52:19.802Z,0
2019-02-17T19:55:48.062Z,0
2019-02-17T19:59:17.044Z,0
2019-02-17T20:02:46.024Z,0
2019-02-17T20:06:15.067Z,0
2019-02-17T20:09:44.146Z,0
2019-02-17T20:13:12.127Z,0
2019-02-17T20:16:40.267Z,0
2019-02-17T20:20:08.370Z,0
2019-02-17T20:23:36.375Z,0
2019-02-17T20:27:04.554Z,0
2019-02-17T20:30:32.579Z,0
2019-02-17T20:34:00.631Z,0
2019-02-17T20:37:28.630Z,0
2019-02-17T20:40:56.715Z,0
2019-02-17T20:44:25.637Z,0
2019-02-17T20:47:53.551Z,0
2019-02-17T20:51:21.485Z,0
2019-02-17T20:54:49.414Z,0
2019-02-17T20:58:17.277Z,0
2019-02-17T21:01:46.175Z,0
2019-02-17T21:05:14.135Z,0
2019-02-17T21:08:42.008Z,0
2019-02-17T21:12:09.986Z,0
2019-02-17T21:15:37.884Z,0
2019-02-17T21:19:05.774Z,0
2019-02-17T21:22:33.681Z,0
2019-02-17T21:26:01.581Z,0
2019-02-17T21:29:29.483Z,0
2019-02-17T21:32:58.381Z,0
2019-02-17T21:36:26.280Z,0
2019-02-17T21:39:54.158Z,0
2019-02-17T21:43:22.094Z,0
2019-02-17T21:46:49.985Z,0
2019-02-17T21:50:17.908Z,0
2019-02-17T21:53:45.786Z,0
2019-02-17T21:57:13.680Z,0
2019-02-17T22:00:41.612Z,0
2019-02-17T22:04:09.482Z,0
2019-02-17T22:07:38.377Z,0
2019-02-17T22:11:06.257Z,0
2019-02-17T22:14:34.159Z,0
2019-02-17T22:18:02.085Z,0
2019-02-17T22:21:29.956Z,0
2019-02-17T22:24:57.891Z,0
2019-02-17T22:28:25.795Z,0
2019-02-17T22:31:53.701Z,0
2019-02-17T22:35:21.593Z,0
2019-02-17T22:38:49.484Z,0
2019-02-17T22:42:17.560Z,0
2019-02-17T22:45:45.509Z,0
2019-02-17T22:49:13.419Z,0
2019-02-17T22:52:41.303Z,0
2019-02-17T22:56:09.203Z,0
2019-02-17T22:59:37.119Z,0
